createdAt,value
2022-09-20T00:01:11.617Z,97786.75
2022-09-20T00:04:17.161Z,97788.94
2022-09-20T00:07:22.702Z,97785.91
2022-09-20T00:10:31.269Z,97794.81
2022-09-20T00:13:39.568Z,97795.63
2022-09-20T00:16:47.754Z,97785.25
2022-09-20T00:19:57.030Z,97780.50
2022-09-20T00:23:02.572Z,97794.81
2022-09-20T00:26:08.600Z,97793.34
2022-09-20T00:29:14.159Z,97793.34
2022-09-20T00:32:22.492Z,97791.22
2022-09-20T00:35:25.818Z,97792.78
2022-09-20T00:38:31.354Z,97791.31
2022-09-20T00:41:37.964Z,97793.16
2022-09-20T00:44:56.726Z,97793.25
2022-09-20T00:48:16.306Z,97800.59
2022-09-20T00:51:31.736Z,97793.69
2022-09-20T00:54:37.712Z,97793.97
2022-09-20T00:57:45.756Z,97791.75
2022-09-20T01:01:00.813Z,97796.72
2022-09-20T01:04:12.422Z,97798.63
2022-09-20T01:07:25.266Z,97796.53
2022-09-20T01:10:30.988Z,97789.56
2022-09-20T01:13:36.546Z,97794.06
2022-09-20T01:16:42.688Z,97793.69
2022-09-20T01:20:16.258Z,97794.34
2022-09-20T01:23:51.778Z,97802.97
2022-09-20T01:27:26.096Z,97799.66
2022-09-20T01:30:46.763Z,97801.38
2022-09-20T01:34:01.607Z,97799.38
2022-09-20T01:37:19.442Z,97804.88
2022-09-20T01:40:41.853Z,97802.69
2022-09-20T01:43:58.756Z,97803.13
2022-09-20T01:47:21.272Z,97808.00
2022-09-20T01:50:42.172Z,97802.94
2022-09-20T01:54:40.216Z,97802.28
2022-09-20T01:58:29.624Z,97795.91
2022-09-20T02:02:20.127Z,97796.81
2022-09-20T02:06:29.805Z,97794.44
2022-09-20T02:10:22.002Z,97800.28
2022-09-20T02:13:36.540Z,97795.16
2022-09-20T02:16:53.442Z,97806.41
2022-09-20T02:20:26.204Z,97800.28
2022-09-20T02:23:54.429Z,97805.03
2022-09-20T02:27:24.821Z,97806.97
2022-09-20T02:30:48.867Z,97806.84
2022-09-20T02:34:35.608Z,97807.16
2022-09-20T02:38:09.962Z,97805.31
2022-09-20T02:41:54.492Z,97805.59
2022-09-20T02:45:12.786Z,97813.84
2022-09-20T02:48:30.605Z,97795.03
2022-09-20T02:51:47.689Z,97808.69
2022-09-20T02:55:10.510Z,97808.53
2022-09-20T02:58:39.098Z,97811.94
2022-09-20T03:01:59.840Z,97813.94
2022-09-20T03:05:25.324Z,97819.09
2022-09-20T03:08:50.647Z,97821.25
2022-09-20T03:12:17.930Z,97826.66
2022-09-20T03:15:51.119Z,97826.56
2022-09-20T03:19:29.325Z,97829.78
2022-09-20T03:22:54.362Z,97829.78
2022-09-20T03:26:21.533Z,97829.78
2022-09-20T03:29:55.936Z,97835.81
2022-09-20T03:33:17.040Z,97827.19
2022-09-20T03:37:00.443Z,97835.16
2022-09-20T03:40:47.568Z,97841.03
2022-09-20T03:44:25.537Z,97840.59
2022-09-20T03:48:06.200Z,97845.19
2022-09-20T03:51:34.334Z,97839.28
2022-09-20T03:55:30.422Z,97837.75
2022-09-20T03:59:15.807Z,97847.31
2022-09-20T04:02:47.796Z,97841.13
2022-09-20T04:06:34.293Z,97847.75
2022-09-20T04:10:27.141Z,97848.44
2022-09-20T04:14:11.256Z,97854.91
2022-09-20T04:17:39.108Z,97850.19
2022-09-20T04:20:58.148Z,97846.34
2022-09-20T04:24:16.515Z,97858.38
2022-09-20T04:27:31.537Z,97860.97
2022-09-20T04:30:46.432Z,97858.94
2022-09-20T04:33:59.935Z,97858.09
2022-09-20T04:37:32.398Z,97870.94
2022-09-20T04:41:38.171Z,97865.63
2022-09-20T04:46:03.661Z,97863.09
2022-09-20T04:49:59.718Z,97873.81
2022-09-20T04:53:57.630Z,97869.22
2022-09-20T04:57:48.121Z,97876.66
2022-09-20T05:01:47.679Z,97880.44
2022-09-20T05:05:41.396Z,97879.13
2022-09-20T05:09:25.561Z,97877.25
2022-09-20T05:13:08.208Z,97891.84
2022-09-20T05:16:34.145Z,97884.81
2022-09-20T05:20:12.766Z,97889.38
2022-09-20T05:23:49.640Z,97895.47
2022-09-20T05:27:37.162Z,97896.00
2022-09-20T05:30:52.063Z,97899.94
2022-09-20T05:34:12.872Z,97897.69
2022-09-20T05:37:43.916Z,97899.91
2022-09-20T05:41:21.327Z,97896.34
2022-09-20T05:44:56.926Z,97899.44
2022-09-20T05:48:16.415Z,97900.31
2022-09-20T05:51:48.437Z,97897.06
2022-09-20T05:55:31.327Z,97899.53
2022-09-20T05:59:04.130Z,97903.59
2022-09-20T06:02:40.318Z,97904.50
2022-09-20T06:06:15.578Z,97911.31
2022-09-20T06:09:54.922Z,97907.09
2022-09-20T06:13:26.550Z,97917.56
2022-09-20T06:16:46.393Z,97914.31
2022-09-20T06:20:22.095Z,97918.66
2022-09-20T06:23:32.142Z,97921.50
2022-09-20T06:26:40.994Z,97925.09
2022-09-20T06:29:57.880Z,97916.91
2022-09-20T06:33:16.821Z,97917.53
2022-09-20T06:36:48.061Z,97929.09
2022-09-20T06:40:18.293Z,97928.75
2022-09-20T06:43:24.204Z,97924.88
2022-09-20T06:46:34.916Z,97933.84
2022-09-20T06:49:42.538Z,97934.72
2022-09-20T06:52:52.727Z,97931.84
2022-09-20T06:56:00.452Z,97944.06
2022-09-20T06:59:08.700Z,97942.25
2022-09-20T07:02:14.384Z,97950.97
2022-09-20T07:05:22.249Z,97947.47
2022-09-20T07:08:30.599Z,97953.06
2022-09-20T07:11:36.234Z,97961.50
2022-09-20T07:14:43.240Z,97961.34
2022-09-20T07:17:49.177Z,97963.25
2022-09-20T07:20:54.682Z,97970.88
2022-09-20T07:24:02.882Z,97975.91
2022-09-20T07:27:09.482Z,97975.91
2022-09-20T07:30:18.742Z,97987.13
2022-09-20T07:33:25.313Z,97985.00
2022-09-20T07:36:30.845Z,97989.06
2022-09-20T07:39:38.960Z,97988.22
2022-09-20T07:42:46.216Z,97996.88
2022-09-20T07:45:56.140Z,97998.16
2022-09-20T07:49:01.718Z,97992.09
2022-09-20T07:52:07.938Z,97991.25
2022-09-20T07:55:16.029Z,97995.72
2022-09-20T07:58:21.724Z,98003.34
2022-09-20T08:01:27.245Z,97997.25
2022-09-20T08:04:32.917Z,98005.69
2022-09-20T08:07:38.844Z,98009.22
2022-09-20T08:10:48.764Z,98008.41
2022-09-20T08:14:06.269Z,98009.56
2022-09-20T08:17:13.516Z,98010.19
2022-09-20T08:20:19.739Z,98011.34
2022-09-20T08:23:25.346Z,98013.91
2022-09-20T08:26:36.836Z,98023.78
2022-09-20T08:29:42.632Z,98022.56
2022-09-20T08:32:48.374Z,98018.69
2022-09-20T08:35:57.789Z,98017.00
2022-09-20T08:42:43.841Z,98015.94
2022-09-20T08:45:50.645Z,98021.78
2022-09-20T08:48:57.789Z,98031.44
2022-09-20T08:52:10.368Z,98022.59
2022-09-20T08:55:20.131Z,98026.94
2022-09-20T08:58:30.141Z,98027.81
2022-09-20T09:01:35.968Z,98029.50
2022-09-20T09:04:41.365Z,98025.59
2022-09-20T09:07:46.953Z,98031.94
2022-09-20T09:10:59.063Z,98030.31
2022-09-20T09:14:26.694Z,98031.75
2022-09-20T09:17:34.290Z,98032.78
2022-09-20T09:20:47.488Z,98025.59
2022-09-20T09:24:01.404Z,98026.56
2022-09-20T09:27:17.980Z,98026.50
2022-09-20T09:30:30.465Z,98018.63
2022-09-20T09:33:37.728Z,98027.56
2022-09-20T09:36:47.462Z,98029.59
2022-09-20T09:40:19.309Z,98027.44
2022-09-20T09:43:30.421Z,98035.91
2022-09-20T09:46:42.228Z,98038.28
2022-09-20T09:50:04.836Z,98028.47
2022-09-20T09:53:18.397Z,98028.31
2022-09-20T09:56:49.174Z,98024.59
2022-09-20T10:00:23.857Z,98014.69
2022-09-20T10:03:53.364Z,98021.41
2022-09-20T10:07:12.754Z,98009.13
2022-09-20T10:10:36.412Z,98018.38
2022-09-20T10:14:03.751Z,98015.84
2022-09-20T10:17:36.186Z,98011.97
2022-09-20T10:21:10.347Z,98010.53
2022-09-20T10:24:51.635Z,98013.97
2022-09-20T10:28:23.914Z,98005.91
2022-09-20T10:31:54.756Z,98004.44
2022-09-20T10:35:23.055Z,98001.69
2022-09-20T10:38:40.639Z,98004.06
2022-09-20T10:42:16.555Z,98001.81
2022-09-20T10:46:08.410Z,98005.50
2022-09-20T10:49:48.449Z,97999.41
2022-09-20T10:53:27.438Z,98009.94
2022-09-20T10:56:40.509Z,98012.28
2022-09-20T11:00:03.365Z,98017.28
2022-09-20T11:03:40.311Z,98027.47
2022-09-20T11:07:05.177Z,98036.41
2022-09-20T11:10:36.372Z,98033.16
2022-09-20T11:13:54.059Z,98030.81
2022-09-20T11:17:09.714Z,98019.81
2022-09-20T11:20:34.390Z,98026.84
2022-09-20T11:23:54.444Z,98022.56
2022-09-20T11:27:10.547Z,98026.31
2022-09-20T11:30:24.689Z,98026.63
2022-09-20T11:33:41.391Z,98023.06
2022-09-20T11:36:59.151Z,98024.00
2022-09-20T11:40:18.882Z,98029.63
2022-09-20T11:43:29.289Z,98031.47
2022-09-20T11:46:49.557Z,98029.81
2022-09-20T11:50:51.171Z,98019.09
2022-09-20T11:54:36.432Z,98021.66
2022-09-20T11:57:43.361Z,98026.69
2022-09-20T12:01:01.343Z,98022.72
2022-09-20T12:04:40.722Z,98026.16
2022-09-20T12:07:47.424Z,98023.94
2022-09-20T12:11:07.269Z,98030.97
2022-09-20T12:14:28.585Z,98017.66
2022-09-20T12:18:25.638Z,98014.78
2022-09-20T12:21:34.236Z,98018.72
2022-09-20T12:24:45.810Z,98014.91
2022-09-20T12:28:17.553Z,98022.41
2022-09-20T12:31:49.203Z,98015.22
2022-09-20T12:34:54.709Z,98017.00
2022-09-20T12:38:28.013Z,98010.03
2022-09-20T12:41:53.158Z,98012.59
2022-09-20T12:45:08.457Z,98012.41
2022-09-20T12:48:22.895Z,98013.59
2022-09-20T12:51:50.436Z,98023.47
2022-09-20T12:55:04.726Z,98014.63
2022-09-20T12:58:29.907Z,98014.72
2022-09-20T13:01:43.852Z,98010.41
2022-09-20T13:05:12.369Z,98011.09
2022-09-20T13:08:30.828Z,98019.06
2022-09-20T13:11:47.759Z,98018.97
2022-09-20T13:15:01.602Z,98018.38
2022-09-20T13:18:10.149Z,98019.63
2022-09-20T13:21:16.690Z,98021.84
2022-09-20T13:24:23.826Z,98015.13
2022-09-20T13:27:38.168Z,98021.69
2022-09-20T13:30:43.717Z,98021.09
2022-09-20T13:33:49.333Z,98020.22
2022-09-20T13:37:01.666Z,98016.09
2022-09-20T13:40:10.084Z,98014.59
2022-09-20T13:43:31.170Z,98024.94
2022-09-20T13:46:49.315Z,98026.91
2022-09-20T13:49:54.955Z,98016.13
2022-09-20T13:53:07.740Z,98013.47
2022-09-20T13:56:22.595Z,98021.28
2022-09-20T13:59:41.024Z,98024.91
2022-09-20T14:02:46.815Z,98014.38
2022-09-20T14:05:56.286Z,98020.28
2022-09-20T14:09:11.500Z,98021.03
2022-09-20T14:12:22.376Z,98014.47
2022-09-20T14:15:38.978Z,98020.97
2022-09-20T14:18:49.461Z,98029.16
2022-09-20T14:21:55.603Z,98022.50
2022-09-20T14:25:30.187Z,98025.84
2022-09-20T14:28:45.005Z,98032.25
2022-09-20T14:31:53.394Z,98032.69
2022-09-20T14:35:08.291Z,98020.69
2022-09-20T14:38:14.719Z,98022.53
2022-09-20T14:41:33.284Z,98030.53
2022-09-20T14:44:38.887Z,98034.31
2022-09-20T14:48:09.532Z,98036.66
2022-09-20T14:51:26.987Z,98030.59
2022-09-20T14:54:35.135Z,98026.28
2022-09-20T14:57:41.256Z,98030.41
2022-09-20T15:00:58.053Z,98034.72
2022-09-20T15:04:23.293Z,98040.50
2022-09-20T15:07:29.264Z,98033.28
2022-09-20T15:10:35.217Z,98046.44
2022-09-20T15:13:40.787Z,98037.81
2022-09-20T15:16:46.447Z,98032.63
2022-09-20T15:19:55.332Z,98037.97
2022-09-20T15:23:08.449Z,98029.97
2022-09-20T15:26:17.150Z,98043.44
2022-09-20T15:29:25.365Z,98053.00
2022-09-20T15:32:31.671Z,98055.06
2022-09-20T15:35:39.925Z,98061.66
2022-09-20T15:38:45.908Z,98060.44
2022-09-20T15:42:00.285Z,98068.06
2022-09-20T15:45:17.692Z,98067.81
2022-09-20T15:48:26.667Z,98071.09
2022-09-20T15:51:36.390Z,98076.16
2022-09-20T15:54:46.352Z,98076.69
2022-09-20T15:57:51.989Z,98074.56
2022-09-20T16:00:57.561Z,98075.56
2022-09-20T16:04:11.868Z,98082.09
2022-09-20T16:07:26.048Z,98087.19
2022-09-20T16:10:31.881Z,98090.50
2022-09-20T16:13:39.172Z,98093.34
2022-09-20T16:16:44.941Z,98097.81
2022-09-20T16:19:49.011Z,98095.53
2022-09-20T16:22:57.480Z,98092.59
2022-09-20T16:26:08.355Z,98096.38
2022-09-20T16:29:16.838Z,98105.16
2022-09-20T16:32:24.354Z,98113.63
2022-09-20T16:35:29.990Z,98117.94
2022-09-20T16:38:46.032Z,98125.94
2022-09-20T16:41:53.252Z,98132.06
2022-09-20T16:44:59.119Z,98129.81
2022-09-20T16:48:08.589Z,98127.88
2022-09-20T16:51:21.323Z,98133.28
2022-09-20T16:54:35.944Z,98148.69
2022-09-20T16:57:41.769Z,98152.75
2022-09-20T17:00:48.447Z,98149.31
2022-09-20T17:04:09.636Z,98153.09
2022-09-20T17:07:16.064Z,98152.66
2022-09-20T17:10:29.492Z,98155.59
2022-09-20T17:13:36.410Z,98158.84
2022-09-20T17:16:48.152Z,98160.31
2022-09-20T17:19:54.510Z,98159.59
2022-09-20T17:23:00.845Z,98170.19
2022-09-20T17:26:16.858Z,98169.34
2022-09-20T17:29:24.470Z,98172.53
2022-09-20T17:32:30.022Z,98171.44
2022-09-20T17:35:38.524Z,98183.44
2022-09-20T17:38:50.496Z,98184.00
2022-09-20T17:42:03.147Z,98202.72
2022-09-20T17:45:12.734Z,98200.34
2022-09-20T17:48:19.244Z,98201.34
2022-09-20T17:51:28.534Z,98209.19
2022-09-20T17:54:34.421Z,98209.03
2022-09-20T17:57:42.590Z,98216.13
2022-09-20T18:00:48.313Z,98209.81
2022-09-20T18:03:54.462Z,98214.50
2022-09-20T18:07:02.078Z,98222.84
2022-09-20T18:10:08.893Z,98226.16
2022-09-20T18:13:18.540Z,98224.66
2022-09-20T18:16:24.593Z,98232.81
2022-09-20T18:19:33.360Z,98239.47
2022-09-20T18:22:39.155Z,98237.25
2022-09-20T18:25:59.995Z,98237.97
2022-09-20T18:29:18.390Z,98246.91
2022-09-20T18:32:30.197Z,98252.53
2022-09-20T18:35:37.601Z,98255.78
2022-09-20T18:38:49.450Z,98258.75
2022-09-20T18:41:56.286Z,98256.38
2022-09-20T18:45:04.715Z,98258.06
2022-09-20T18:48:10.463Z,98270.19
2022-09-20T18:51:16.457Z,98264.97
2022-09-20T18:54:22.859Z,98271.09
2022-09-20T18:57:29.630Z,98272.09
2022-09-20T19:00:39.262Z,98272.38
2022-09-20T19:04:07.685Z,98274.41
2022-09-20T19:07:28.261Z,98275.78
2022-09-20T19:10:49.718Z,98281.72
2022-09-20T19:14:07.997Z,98292.25
2022-09-20T19:17:33.925Z,98290.31
2022-09-20T19:20:51.555Z,98291.13
2022-09-20T19:24:18.714Z,98289.72
2022-09-20T19:27:25.960Z,98295.56
2022-09-20T19:30:32.866Z,98300.41
2022-09-20T19:33:45.625Z,98302.06
2022-09-20T19:37:18.942Z,98297.25
2022-09-20T19:40:41.433Z,98299.00
2022-09-20T19:44:19.353Z,98289.50
2022-09-20T19:47:42.562Z,98299.84
2022-09-20T19:50:56.779Z,98300.72
2022-09-20T19:54:06.386Z,98292.91
2022-09-20T19:57:24.281Z,98297.28
2022-09-20T20:00:31.609Z,98302.31
2022-09-20T20:03:40.394Z,98305.97
2022-09-20T20:07:07.275Z,98308.69
2022-09-20T20:10:29.627Z,98309.50
2022-09-20T20:14:01.444Z,98309.53
2022-09-20T20:17:30.351Z,98312.69
2022-09-20T20:20:46.850Z,98313.56
2022-09-20T20:24:21.224Z,98311.59
2022-09-20T20:27:31.828Z,98312.78
2022-09-20T20:30:37.506Z,98311.13
2022-09-20T20:33:44.128Z,98312.59
2022-09-20T20:36:50.116Z,98311.28
2022-09-20T20:39:58.341Z,98312.28
2022-09-20T20:43:06.329Z,98312.44
2022-09-20T20:46:15.780Z,98305.97
2022-09-20T20:49:21.465Z,98306.66
2022-09-20T20:52:27.167Z,98318.78
2022-09-20T20:55:36.740Z,98306.47
2022-09-20T20:58:45.980Z,98313.13
2022-09-20T21:01:51.472Z,98311.63
2022-09-20T21:04:57.067Z,98308.97
2022-09-20T21:08:03.098Z,98304.81
2022-09-20T21:11:14.845Z,98311.31
2022-09-20T21:14:20.428Z,98312.94
2022-09-20T21:17:26.118Z,98308.66
2022-09-20T21:20:31.687Z,98314.41
2022-09-20T21:23:38.566Z,98308.13
2022-09-20T21:26:48.730Z,98318.25
2022-09-20T21:29:54.672Z,98316.09
2022-09-20T21:33:00.136Z,98335.38
2022-09-20T21:36:09.120Z,98325.72
2022-09-20T21:39:15.650Z,98320.72
2022-09-20T21:42:27.443Z,98337.00
2022-09-20T21:45:33.740Z,98338.66
2022-09-20T21:48:39.420Z,98340.78
2022-09-20T21:51:46.076Z,98339.97
2022-09-20T21:54:52.725Z,98347.28
2022-09-20T21:58:00.888Z,98342.66
2022-09-20T22:01:10.219Z,98335.16
2022-09-20T22:04:17.846Z,98339.84
2022-09-20T22:07:23.467Z,98340.00
2022-09-20T22:10:29.503Z,98339.00
2022-09-20T22:13:41.906Z,98338.38
2022-09-20T22:16:51.514Z,98335.69
2022-09-20T22:19:57.129Z,98340.00
2022-09-20T22:23:08.302Z,98336.69
2022-09-20T22:26:18.900Z,98344.66
2022-09-20T22:29:26.972Z,98349.66
2022-09-20T22:32:50.632Z,98349.66
2022-09-20T22:36:18.296Z,98351.34
2022-09-20T22:39:40.447Z,98350.50
2022-09-20T22:43:06.487Z,98345.72
2022-09-20T22:46:17.228Z,98347.19
2022-09-20T22:49:30.021Z,98345.69
2022-09-20T22:52:37.680Z,98348.38
2022-09-20T22:55:43.128Z,98356.00
2022-09-20T22:58:52.050Z,98356.16
2022-09-20T23:02:00.272Z,98352.50
2022-09-20T23:05:06.568Z,98356.66
2022-09-20T23:08:12.126Z,98351.53
2022-09-20T23:11:19.295Z,98347.53
2022-09-20T23:14:25.918Z,98347.88
2022-09-20T23:17:34.022Z,98361.66
2022-09-20T23:20:39.526Z,98355.34
2022-09-20T23:23:45.768Z,98363.00
2022-09-20T23:26:51.680Z,98359.63
2022-09-20T23:29:57.298Z,98369.25
2022-09-20T23:33:05.432Z,98374.44
2022-09-20T23:36:13.492Z,98374.94
2022-09-20T23:39:19.178Z,98364.78
2022-09-20T23:42:24.744Z,98364.47
2022-09-20T23:45:30.224Z,98370.25
2022-09-20T23:48:41.556Z,98362.63
2022-09-20T23:51:47.017Z,98365.97
2022-09-20T23:54:52.512Z,98370.25
2022-09-20T23:57:58.865Z,98362.97
